createdAt,value
2022-12-23T00:01:35.963Z,13.13
2022-12-23T00:04:03.320Z,12.85
2022-12-23T00:06:30.187Z,12.25
2022-12-23T00:08:59.798Z,13.35
2022-12-23T00:11:28.440Z,12.45
2022-12-23T00:14:20.427Z,12.50
2022-12-23T00:16:50.328Z,12.55
2022-12-23T00:19:17.422Z,11.82
2022-12-23T00:21:44.342Z,12.15
2022-12-23T00:24:11.967Z,12.50
2022-12-23T00:26:39.580Z,15.45
2022-12-23T00:29:06.382Z,13.45
2022-12-23T00:31:33.278Z,12.85
2022-12-23T00:34:00.229Z,12.73
2022-12-23T00:36:29.233Z,12.23
2022-12-23T00:39:16.380Z,12.13
2022-12-23T00:42:02.364Z,13.25
2022-12-23T00:44:29.366Z,11.75
2022-12-23T00:46:56.299Z,12.23
2022-12-23T00:49:41.463Z,11.82
2022-12-23T00:52:11.203Z,13.00
2022-12-23T00:54:38.523Z,11.55
2022-12-23T00:57:05.682Z,11.27
2022-12-23T00:59:33.369Z,12.02
2022-12-23T01:02:18.726Z,11.93
2022-12-23T01:05:04.070Z,11.40
2022-12-23T01:07:31.036Z,12.43
2022-12-23T01:09:57.852Z,11.95
2022-12-23T01:12:24.677Z,13.93
2022-12-23T01:14:51.551Z,12.40
2022-12-23T01:17:18.759Z,11.55
2022-12-23T01:19:45.707Z,13.20
2022-12-23T01:22:12.604Z,12.18
2022-12-23T01:24:39.484Z,11.55
2022-12-23T01:27:06.341Z,12.27
2022-12-23T01:29:33.212Z,12.73
2022-12-23T01:32:00.199Z,12.20
2022-12-23T01:34:32.557Z,13.40
2022-12-23T01:37:03.231Z,12.68
2022-12-23T01:39:30.060Z,11.93
2022-12-23T01:42:20.200Z,13.40
2022-12-23T01:44:50.512Z,13.60
2022-12-23T01:47:26.537Z,14.27
2022-12-23T01:50:01.867Z,14.82
2022-12-23T01:52:29.919Z,13.50
2022-12-23T01:54:57.339Z,13.93
2022-12-23T01:57:24.857Z,14.40
2022-12-23T02:00:10.662Z,14.50
2022-12-23T02:02:59.943Z,14.88
2022-12-23T02:05:27.321Z,14.73
2022-12-23T02:08:13.531Z,14.02
2022-12-23T02:11:17.435Z,14.50
2022-12-23T02:14:41.745Z,15.73
2022-12-23T02:17:25.405Z,13.57
2022-12-23T02:20:16.228Z,14.13
2022-12-23T02:23:16.848Z,13.85
2022-12-23T02:26:12.899Z,16.10
2022-12-23T02:29:00.812Z,14.43
2022-12-23T02:31:43.048Z,14.93
2022-12-23T02:34:20.876Z,14.48
2022-12-23T02:36:59.375Z,15.93
2022-12-23T02:39:58.788Z,15.77
2022-12-23T02:42:57.221Z,15.60
2022-12-23T02:45:30.670Z,15.52
2022-12-23T02:48:03.606Z,15.27
2022-12-23T02:50:33.567Z,14.80
2022-12-23T02:53:05.053Z,15.38
2022-12-23T02:55:35.893Z,16.08
2022-12-23T02:58:07.390Z,16.00
2022-12-23T03:00:36.330Z,16.38
2022-12-23T03:03:03.533Z,15.82
2022-12-23T03:05:39.246Z,16.05
2022-12-23T03:08:11.738Z,15.60
2022-12-23T03:10:41.417Z,16.00
2022-12-23T03:13:31.190Z,14.95
2022-12-23T03:16:13.373Z,15.18
2022-12-23T03:19:01.237Z,15.20
2022-12-23T03:21:42.627Z,16.13
2022-12-23T03:24:15.283Z,15.95
2022-12-23T03:27:08.701Z,15.38
2022-12-23T03:29:53.742Z,14.52
2022-12-23T03:32:23.264Z,14.52
2022-12-23T03:34:53.650Z,14.55
2022-12-23T03:37:22.569Z,16.25
2022-12-23T03:39:54.905Z,15.43
2022-12-23T03:42:29.308Z,14.90
2022-12-23T03:47:53.399Z,16.90
2022-12-23T03:50:22.882Z,15.50
2022-12-23T03:53:02.618Z,15.88
2022-12-23T03:55:41.807Z,17.23
2022-12-23T03:58:39.787Z,15.35
2022-12-23T04:01:25.745Z,16.80
2022-12-23T04:04:03.807Z,15.63
2022-12-23T04:06:41.109Z,14.18
2022-12-23T04:09:08.823Z,14.80
2022-12-23T04:11:36.684Z,16.98
2022-12-23T04:14:03.722Z,16.00
2022-12-23T04:16:30.759Z,15.48
2022-12-23T04:18:57.717Z,15.32
2022-12-23T04:21:24.639Z,15.77
2022-12-23T04:23:51.513Z,16.17
2022-12-23T04:26:18.363Z,14.50
2022-12-23T04:28:45.194Z,13.88
2022-12-23T04:31:12.168Z,15.23
2022-12-23T04:33:39.158Z,15.15
2022-12-23T04:36:06.211Z,15.75
2022-12-23T04:38:33.176Z,15.43
2022-12-23T04:41:00.048Z,16.80
2022-12-23T04:43:26.903Z,17.40
2022-12-23T04:45:53.893Z,15.02
2022-12-23T04:48:21.039Z,14.27
2022-12-23T04:50:48.036Z,15.15
2022-12-23T04:53:14.979Z,16.30
2022-12-23T04:55:41.963Z,16.35
2022-12-23T04:58:08.823Z,16.20
2022-12-23T05:00:39.752Z,15.45
2022-12-23T05:03:07.069Z,14.88
2022-12-23T05:05:34.096Z,14.80
2022-12-23T05:08:06.243Z,16.27
2022-12-23T05:10:33.209Z,16.30
2022-12-23T05:13:00.148Z,16.45
2022-12-23T05:15:26.980Z,17.23
2022-12-23T05:17:53.904Z,18.00
2022-12-23T05:20:20.696Z,15.93
2022-12-23T05:22:47.573Z,16.52
2022-12-23T05:25:14.476Z,13.63
2022-12-23T05:27:41.308Z,13.50
2022-12-23T05:30:08.957Z,15.02
2022-12-23T05:32:36.054Z,14.13
2022-12-23T05:35:02.920Z,13.60
2022-12-23T05:37:29.911Z,14.43
2022-12-23T05:39:56.773Z,14.18
2022-12-23T05:42:23.750Z,13.30
2022-12-23T05:44:50.604Z,15.23
2022-12-23T05:47:17.502Z,15.07
2022-12-23T05:49:44.354Z,15.18
2022-12-23T05:52:11.283Z,14.98
2022-12-23T05:54:38.115Z,14.98
2022-12-23T05:57:04.944Z,14.00
2022-12-23T05:59:32.019Z,14.35
2022-12-23T06:01:59.176Z,14.52
2022-12-23T06:04:26.303Z,15.80
2022-12-23T06:06:53.377Z,15.85
2022-12-23T06:09:20.271Z,15.55
2022-12-23T06:11:47.186Z,15.65
2022-12-23T06:14:14.133Z,15.35
2022-12-23T06:16:41.091Z,15.52
2022-12-23T06:19:08.314Z,17.30
2022-12-23T06:21:35.323Z,17.13
2022-12-23T06:24:02.209Z,15.95
2022-12-23T06:26:29.051Z,15.88
2022-12-23T06:28:56.014Z,17.48
2022-12-23T06:31:22.909Z,15.27
2022-12-23T06:33:49.769Z,14.68
2022-12-23T06:36:16.625Z,15.45
2022-12-23T06:38:43.487Z,15.48
2022-12-23T06:41:10.517Z,14.63
2022-12-23T06:43:37.320Z,15.23
2022-12-23T06:46:04.397Z,15.48
2022-12-23T06:48:31.423Z,17.10
2022-12-23T06:50:58.292Z,15.55
2022-12-23T06:53:25.253Z,14.73
2022-12-23T06:56:03.134Z,14.35
2022-12-23T06:58:30.275Z,15.55
2022-12-23T07:00:57.221Z,14.75
2022-12-23T07:03:24.091Z,15.88
2022-12-23T07:05:51.798Z,17.55
2022-12-23T07:08:19.277Z,17.88
2022-12-23T07:10:46.538Z,17.40
2022-12-23T07:13:13.433Z,17.50
2022-12-23T07:15:40.306Z,16.95
2022-12-23T07:18:07.704Z,16.67
2022-12-23T07:20:34.528Z,15.45
2022-12-23T07:23:01.513Z,15.25
2022-12-23T07:25:28.412Z,16.95
2022-12-23T07:27:55.770Z,16.58
2022-12-23T07:30:23.555Z,17.23
2022-12-23T07:32:50.972Z,15.85
2022-12-23T07:35:18.606Z,16.58
2022-12-23T07:37:45.528Z,17.20
2022-12-23T07:40:13.683Z,17.48
2022-12-23T07:42:46.011Z,16.13
2022-12-23T07:45:13.242Z,16.30
2022-12-23T07:47:40.096Z,16.50
2022-12-23T07:50:07.693Z,15.43
2022-12-23T07:52:34.800Z,16.15
2022-12-23T07:55:01.705Z,16.05
2022-12-23T07:57:29.429Z,14.93
2022-12-23T07:59:56.323Z,16.25
2022-12-23T08:02:25.294Z,16.67
2022-12-23T08:04:52.561Z,16.52
2022-12-23T08:07:19.403Z,15.38
2022-12-23T08:09:46.289Z,18.10
2022-12-23T08:12:13.131Z,19.13
2022-12-23T08:14:40.048Z,17.60
2022-12-23T08:17:06.974Z,17.08
2022-12-23T08:19:33.824Z,16.95
2022-12-23T08:22:00.858Z,18.45
2022-12-23T08:24:27.668Z,18.13
2022-12-23T08:26:54.898Z,17.58
2022-12-23T08:29:21.748Z,19.23
2022-12-23T08:31:50.345Z,18.65
2022-12-23T08:34:19.373Z,18.30
2022-12-23T08:36:46.242Z,17.90
2022-12-23T08:39:13.162Z,16.92
2022-12-23T08:41:43.697Z,17.70
2022-12-23T08:44:11.070Z,17.45
2022-12-23T08:46:38.285Z,17.77
2022-12-23T08:49:06.402Z,18.35
2022-12-23T08:51:33.557Z,17.48
2022-12-23T08:54:01.761Z,18.27
2022-12-23T08:56:39.071Z,17.17
2022-12-23T08:59:06.433Z,16.20
2022-12-23T09:01:34.658Z,18.70
2022-12-23T09:04:06.397Z,17.25
2022-12-23T09:06:38.262Z,14.70
2022-12-23T09:09:05.743Z,16.83
2022-12-23T09:11:33.849Z,14.80
2022-12-23T09:14:01.705Z,14.48
2022-12-23T09:16:29.733Z,14.32
2022-12-23T09:18:57.374Z,14.52
2022-12-23T09:21:25.001Z,13.43
2022-12-23T09:23:52.264Z,14.02
2022-12-23T09:26:24.848Z,14.77
2022-12-23T09:28:51.891Z,14.75
2022-12-23T09:31:19.825Z,13.88
2022-12-23T09:33:49.439Z,12.27
2022-12-23T09:36:16.860Z,12.30
2022-12-23T09:38:43.909Z,13.18
2022-12-23T09:41:29.086Z,13.75
2022-12-23T09:44:20.764Z,14.20
2022-12-23T09:46:53.675Z,13.13
2022-12-23T09:49:22.636Z,13.18
2022-12-23T09:51:54.169Z,14.30
2022-12-23T09:54:46.047Z,12.73
2022-12-23T09:59:54.105Z,13.27
2022-12-23T10:02:29.678Z,14.60
2022-12-23T10:05:24.348Z,13.25
2022-12-23T10:08:08.374Z,12.20
2022-12-23T10:10:51.254Z,12.65
2022-12-23T10:13:26.819Z,12.48
2022-12-23T10:15:56.229Z,12.18
2022-12-23T10:19:01.666Z,11.23
2022-12-23T10:21:51.698Z,10.95
2022-12-23T10:24:23.124Z,10.93
2022-12-23T10:26:57.545Z,11.27
2022-12-23T10:29:26.555Z,14.40
2022-12-23T10:32:18.358Z,12.90
2022-12-23T10:35:08.527Z,11.80
2022-12-23T10:37:56.255Z,12.25
2022-12-23T10:40:50.260Z,11.98
2022-12-23T10:43:41.369Z,11.82
2022-12-23T10:46:37.961Z,10.98
2022-12-23T10:49:16.939Z,12.20
2022-12-23T10:51:52.843Z,12.07
2022-12-23T10:54:26.794Z,12.13
2022-12-23T10:56:54.338Z,12.32
2022-12-23T10:59:27.648Z,12.00
2022-12-23T11:02:14.924Z,12.45
2022-12-23T11:04:45.064Z,12.68
2022-12-23T11:07:43.497Z,12.93
2022-12-23T11:10:07.806Z,12.60
2022-12-23T11:12:45.513Z,12.00
2022-12-23T11:15:30.048Z,12.60
2022-12-23T11:18:17.569Z,12.40
2022-12-23T11:21:05.609Z,11.23
2022-12-23T11:23:36.578Z,11.63
2022-12-23T11:26:06.931Z,11.23
2022-12-23T11:28:40.927Z,11.52
2022-12-23T11:31:14.579Z,11.75
2022-12-23T11:33:49.657Z,10.27
2022-12-23T11:36:25.905Z,11.68
2022-12-23T11:39:01.824Z,11.07
2022-12-23T11:41:34.879Z,10.63
2022-12-23T11:44:04.752Z,11.73
2022-12-23T11:46:34.298Z,10.70
2022-12-23T11:49:12.379Z,9.90
2022-12-23T11:51:39.269Z,11.27
2022-12-23T11:54:06.114Z,11.75
2022-12-23T11:56:40.664Z,11.15
2022-12-23T11:59:26.239Z,11.07
2022-12-23T12:01:53.702Z,12.65
2022-12-23T12:04:26.429Z,10.82
2022-12-23T12:06:56.836Z,10.55
2022-12-23T12:09:24.854Z,10.95
2022-12-23T12:12:06.300Z,9.93
2022-12-23T12:14:42.837Z,10.32
2022-12-23T12:17:23.378Z,10.60
2022-12-23T12:19:59.800Z,10.38
2022-12-23T12:22:51.915Z,8.80
2022-12-23T12:25:22.385Z,9.25
2022-12-23T12:27:56.423Z,8.32
2022-12-23T12:30:23.489Z,9.05
2022-12-23T12:32:59.519Z,9.45
2022-12-23T12:35:38.379Z,11.73
2022-12-23T12:38:11.216Z,15.38
2022-12-23T12:40:49.882Z,10.20
2022-12-23T12:43:24.325Z,9.80
2022-12-23T12:46:25.590Z,8.88
2022-12-23T12:49:00.402Z,8.02
2022-12-23T12:51:34.400Z,9.13
2022-12-23T12:54:16.556Z,9.93
2022-12-23T12:56:55.090Z,9.32
2022-12-23T12:59:27.138Z,10.55
2022-12-23T13:02:15.911Z,9.82
2022-12-23T13:04:48.967Z,8.63
2022-12-23T13:07:40.503Z,9.93
2022-12-23T13:10:45.979Z,9.80
2022-12-23T13:13:34.071Z,9.88
2022-12-23T13:16:38.627Z,10.60
2022-12-23T13:19:13.642Z,11.00
2022-12-23T13:21:51.694Z,10.05
2022-12-23T13:24:37.150Z,10.18
2022-12-23T13:27:24.998Z,10.25
2022-12-23T13:30:03.378Z,11.48
2022-12-23T13:33:02.205Z,10.68
2022-12-23T13:35:35.181Z,9.10
2022-12-23T13:38:45.720Z,10.55
2022-12-23T13:41:24.624Z,10.07
2022-12-23T13:44:01.504Z,10.77
2022-12-23T13:46:31.273Z,12.60
2022-12-23T13:49:07.005Z,12.82
2022-12-23T13:51:44.613Z,10.82
2022-12-23T13:54:25.235Z,11.75
2022-12-23T13:57:08.380Z,10.43
2022-12-23T13:59:44.073Z,10.52
2022-12-23T14:02:37.340Z,10.27
2022-12-23T14:05:37.366Z,10.23
2022-12-23T14:08:18.394Z,10.98
2022-12-23T14:10:58.673Z,10.02
2022-12-23T14:13:29.618Z,9.48
2022-12-23T14:16:11.906Z,9.57
2022-12-23T14:18:53.567Z,9.85
2022-12-23T14:21:48.299Z,10.02
2022-12-23T14:24:25.891Z,10.10
2022-12-23T14:27:14.559Z,10.02
2022-12-23T14:30:05.916Z,9.77
2022-12-23T14:32:45.883Z,10.77
2022-12-23T14:35:47.839Z,11.02
2022-12-23T14:38:15.012Z,9.82
2022-12-23T14:41:19.537Z,10.20
2022-12-23T14:43:46.359Z,10.60
2022-12-23T14:46:51.498Z,9.57
2022-12-23T14:49:39.963Z,10.50
2022-12-23T14:52:39.280Z,9.27
2022-12-23T14:55:31.718Z,9.32
2022-12-23T14:58:22.860Z,9.63
2022-12-23T15:00:52.817Z,9.85
2022-12-23T15:03:20.348Z,9.90
2022-12-23T15:05:47.507Z,9.65
2022-12-23T15:08:33.183Z,9.48
2022-12-23T15:11:00.461Z,9.70
2022-12-23T15:13:28.865Z,9.38
2022-12-23T15:16:01.332Z,8.90
2022-12-23T15:18:29.028Z,10.27
2022-12-23T15:21:01.573Z,9.38
2022-12-23T15:23:28.826Z,10.57
2022-12-23T15:26:01.388Z,8.85
2022-12-23T15:28:37.649Z,10.00
2022-12-23T15:31:05.139Z,12.23
2022-12-23T15:34:02.773Z,11.75
2022-12-23T15:39:00.737Z,10.75
2022-12-23T15:41:28.306Z,10.50
2022-12-23T15:44:01.828Z,11.32
2022-12-23T15:46:30.537Z,10.82
2022-12-23T15:48:58.109Z,10.82
2022-12-23T15:54:31.866Z,11.27
2022-12-23T15:57:00.660Z,13.77
2022-12-23T15:59:33.113Z,13.23
2022-12-23T16:02:58.394Z,12.82
2022-12-23T16:05:06.216Z,12.50
2022-12-23T16:07:41.496Z,12.75
2022-12-23T16:10:21.799Z,12.48
2022-12-23T16:12:52.110Z,12.10
2022-12-23T16:15:33.365Z,12.83
2022-12-23T16:18:19.137Z,13.40
2022-12-23T16:20:49.562Z,14.20
2022-12-23T16:23:17.384Z,14.48
2022-12-23T16:25:50.870Z,11.98
2022-12-23T16:28:24.270Z,11.80
2022-12-23T16:30:57.263Z,11.70
2022-12-23T16:33:42.596Z,12.05
2022-12-23T16:36:27.684Z,12.13
2022-12-23T16:39:06.706Z,11.15
2022-12-23T16:41:34.442Z,11.57
2022-12-23T16:44:02.007Z,11.73
2022-12-23T16:46:34.264Z,12.18
2022-12-23T16:49:04.872Z,11.55
2022-12-23T16:51:34.306Z,12.23
2022-12-23T16:54:02.056Z,12.10
2022-12-23T16:56:33.181Z,12.80
2022-12-23T16:59:00.021Z,13.05
2022-12-23T17:01:33.363Z,16.70
2022-12-23T17:04:00.576Z,20.38
2022-12-23T17:06:27.788Z,17.65
2022-12-23T17:08:55.108Z,18.05
2022-12-23T17:11:43.413Z,18.17
2022-12-23T17:14:19.841Z,16.70
2022-12-23T17:16:47.828Z,17.13
2022-12-23T17:19:15.663Z,16.55
2022-12-23T17:21:44.520Z,14.90
2022-12-23T17:24:24.359Z,14.13
2022-12-23T17:26:51.530Z,11.52
2022-12-23T17:29:18.561Z,10.43
2022-12-23T17:31:45.814Z,9.65
2022-12-23T17:34:18.740Z,8.65
2022-12-23T17:36:50.031Z,7.30
2022-12-23T17:39:18.464Z,7.55
2022-12-23T17:41:45.412Z,6.85
2022-12-23T17:44:16.602Z,6.93
2022-12-23T17:46:44.573Z,6.00
2022-12-23T17:49:11.411Z,6.32
2022-12-23T17:51:40.338Z,7.43
2022-12-23T17:54:07.291Z,7.90
2022-12-23T17:56:34.186Z,6.88
2022-12-23T17:59:01.123Z,7.05
2022-12-23T18:01:30.948Z,7.03
2022-12-23T18:03:59.643Z,9.45
2022-12-23T18:06:28.452Z,9.00
2022-12-23T18:08:57.449Z,9.20
2022-12-23T18:11:34.762Z,9.38
2022-12-23T18:14:02.558Z,10.57
2022-12-23T18:16:29.632Z,9.50
2022-12-23T18:18:57.460Z,10.60
2022-12-23T18:21:28.556Z,14.88
2022-12-23T18:23:58.620Z,15.52
2022-12-23T18:26:25.961Z,14.98
2022-12-23T18:28:54.346Z,12.68
2022-12-23T18:31:24.276Z,9.75
2022-12-23T18:33:52.193Z,9.55
2022-12-23T18:36:25.591Z,10.60
2022-12-23T18:38:53.205Z,10.30
2022-12-23T18:41:21.496Z,10.82
2022-12-23T18:43:48.960Z,9.68
2022-12-23T18:46:16.000Z,8.65
2022-12-23T18:48:43.148Z,7.18
2022-12-23T18:51:15.165Z,7.32
2022-12-23T18:53:43.533Z,5.72
2022-12-23T18:56:14.914Z,9.35
2022-12-23T18:58:42.292Z,6.90
2022-12-23T19:01:13.111Z,7.32
2022-12-23T19:03:40.626Z,7.07
2022-12-23T19:06:08.955Z,6.75
2022-12-23T19:08:37.455Z,7.10
2022-12-23T19:11:16.873Z,6.20
2022-12-23T19:13:44.424Z,7.82
2022-12-23T19:16:20.526Z,6.05
2022-12-23T19:18:48.687Z,5.32
2022-12-23T19:21:17.648Z,5.32
2022-12-23T19:23:51.145Z,6.60
2022-12-23T19:26:18.127Z,8.77
2022-12-23T19:28:45.017Z,5.90
2022-12-23T19:31:14.531Z,4.85
2022-12-23T19:33:44.324Z,4.55
2022-12-23T19:36:17.330Z,5.05
2022-12-23T19:38:44.231Z,4.47
2022-12-23T19:41:11.557Z,3.65
2022-12-23T19:43:38.992Z,5.15
2022-12-23T19:46:10.444Z,2.75
2022-12-23T19:48:38.133Z,2.80
2022-12-23T19:51:10.799Z,1.58
2022-12-23T19:53:38.405Z,1.30
2022-12-23T19:56:08.634Z,1.33
2022-12-23T19:58:38.120Z,1.85
2022-12-23T20:01:14.508Z,1.40
2022-12-23T20:03:42.423Z,1.50
2022-12-23T20:06:18.090Z,1.30
2022-12-23T20:08:45.196Z,1.50
2022-12-23T20:11:15.861Z,1.30
2022-12-23T20:13:43.080Z,1.42
2022-12-23T20:16:10.402Z,1.40
2022-12-23T20:18:37.787Z,1.65
2022-12-23T20:21:04.947Z,1.27
2022-12-23T20:23:32.040Z,1.58
2022-12-23T20:25:59.467Z,1.40
2022-12-23T20:28:26.466Z,1.38
2022-12-23T20:31:13.103Z,1.45
2022-12-23T20:33:40.066Z,2.17
2022-12-23T20:36:07.656Z,1.38
2022-12-23T20:38:36.046Z,1.60
2022-12-23T20:41:03.204Z,0.88
2022-12-23T20:43:30.172Z,1.40
2022-12-23T20:45:57.045Z,1.80
2022-12-23T20:48:26.906Z,2.25
2022-12-23T20:51:07.228Z,1.70
2022-12-23T20:53:35.253Z,1.75
2022-12-23T20:56:07.726Z,1.20
2022-12-23T20:58:55.407Z,1.20
2022-12-23T21:01:25.353Z,0.98
2022-12-23T21:03:53.134Z,1.33
2022-12-23T21:06:20.559Z,1.25
2022-12-23T21:08:48.776Z,0.98
2022-12-23T21:11:16.392Z,1.48
2022-12-23T21:13:43.962Z,2.25
2022-12-23T21:16:12.822Z,1.40
2022-12-23T21:18:42.030Z,1.45
2022-12-23T21:21:09.121Z,1.00
2022-12-23T21:23:40.897Z,1.13
2022-12-23T21:26:25.212Z,0.90
2022-12-23T21:28:56.337Z,1.00
2022-12-23T21:31:23.892Z,0.80
2022-12-23T21:33:51.517Z,0.70
2022-12-23T21:36:23.371Z,0.80
2022-12-23T21:38:50.719Z,0.82
2022-12-23T21:41:24.305Z,1.00
2022-12-23T21:43:51.353Z,0.80
2022-12-23T21:46:22.469Z,1.58
2022-12-23T21:48:50.402Z,1.05
2022-12-23T21:51:25.802Z,1.00
2022-12-23T21:53:54.827Z,1.00
2022-12-23T21:56:24.417Z,1.08
2022-12-23T21:58:55.666Z,0.95
2022-12-23T22:01:23.064Z,1.00
2022-12-23T22:03:51.355Z,1.33
2022-12-23T22:06:22.034Z,1.10
2022-12-23T22:08:49.562Z,4.35
2022-12-23T22:11:19.229Z,6.40
2022-12-23T22:13:46.560Z,8.88
2022-12-23T22:16:18.774Z,12.80
2022-12-23T22:18:46.588Z,16.02
2022-12-23T22:21:17.578Z,18.15
2022-12-23T22:23:46.390Z,23.65
2022-12-23T22:26:20.239Z,27.52
2022-12-23T22:28:51.144Z,29.40
2022-12-23T22:31:19.957Z,27.45
2022-12-23T22:33:47.105Z,20.65
2022-12-23T22:36:15.676Z,12.48
2022-12-23T22:38:43.440Z,6.28
2022-12-23T22:41:11.193Z,3.85
2022-12-23T22:43:38.409Z,1.42
2022-12-23T22:46:05.840Z,1.20
2022-12-23T22:48:33.415Z,1.40
2022-12-23T22:51:09.468Z,1.10
2022-12-23T22:53:37.129Z,2.33
2022-12-23T22:56:04.564Z,3.10
2022-12-23T22:58:32.959Z,4.05
2022-12-23T23:01:00.141Z,4.38
2022-12-23T23:03:27.683Z,5.35
2022-12-23T23:06:06.852Z,4.43
2022-12-23T23:08:34.829Z,3.53
2022-12-23T23:11:03.802Z,4.03
2022-12-23T23:13:35.127Z,5.28
2022-12-23T23:16:02.927Z,6.93
2022-12-23T23:18:30.221Z,9.48
2022-12-23T23:20:57.160Z,11.25
2022-12-23T23:23:24.106Z,7.40
2022-12-23T23:25:51.006Z,8.48
2022-12-23T23:28:18.076Z,11.15
2022-12-23T23:30:44.990Z,11.60
2022-12-23T23:33:12.033Z,11.68
2022-12-23T23:35:39.271Z,10.73
2022-12-23T23:38:06.271Z,10.18
2022-12-23T23:40:33.157Z,6.28
2022-12-23T23:43:00.114Z,5.25
2022-12-23T23:45:27.660Z,3.95
2022-12-23T23:47:55.350Z,3.38
2022-12-23T23:50:22.582Z,2.80
2022-12-23T23:52:49.477Z,2.55
2022-12-23T23:55:17.602Z,3.47
2022-12-23T23:57:44.515Z,3.45
